createdAt,value
2019-05-02T00:00:24.391Z,10.05
2019-05-02T00:01:24.381Z,10.05
2019-05-02T00:02:28.806Z,10.04
2019-05-02T00:03:25.379Z,10.03
2019-05-02T00:04:24.359Z,10.01
2019-05-02T00:05:27.442Z,10.00
2019-05-02T00:06:25.328Z,10.00
2019-05-02T00:07:24.318Z,9.97
2019-05-02T00:08:24.330Z,9.96
2019-05-02T00:09:24.308Z,9.97
2019-05-02T00:10:24.859Z,9.98
2019-05-02T00:11:24.285Z,9.97
2019-05-02T00:12:24.265Z,10.00
2019-05-02T00:13:24.257Z,10.00
2019-05-02T00:14:24.244Z,10.04
2019-05-02T00:15:24.245Z,10.07
2019-05-02T00:16:24.224Z,10.11
2019-05-02T00:17:25.555Z,10.15
2019-05-02T00:18:24.202Z,10.19
2019-05-02T00:19:24.191Z,10.23
2019-05-02T00:20:25.995Z,10.27
2019-05-02T00:21:24.180Z,10.32
2019-05-02T00:22:24.161Z,10.37
2019-05-02T00:23:27.924Z,10.40
2019-05-02T00:24:25.150Z,10.45
2019-05-02T00:25:24.127Z,10.48
2019-05-02T00:26:24.838Z,10.51
2019-05-02T00:27:24.131Z,10.54
2019-05-02T00:28:24.099Z,10.59
2019-05-02T00:29:25.053Z,10.62
2019-05-02T00:30:24.075Z,10.65
2019-05-02T00:31:24.063Z,10.70
2019-05-02T00:32:24.055Z,10.73
2019-05-02T00:33:24.055Z,10.78
2019-05-02T00:34:24.033Z,10.80
2019-05-02T00:35:24.020Z,10.83
2019-05-02T00:36:24.017Z,10.85
2019-05-02T00:37:24.628Z,10.89
2019-05-02T00:38:23.986Z,10.93
2019-05-02T00:39:23.995Z,10.95
2019-05-02T00:40:25.699Z,10.98
2019-05-02T00:41:23.954Z,11.00
2019-05-02T00:42:24.205Z,11.03
2019-05-02T00:43:23.934Z,11.03
2019-05-02T00:44:23.930Z,11.06
2019-05-02T00:45:25.825Z,11.07
2019-05-02T00:46:23.908Z,11.09
2019-05-02T00:47:23.889Z,11.10
2019-05-02T00:48:24.423Z,11.12
2019-05-02T00:49:23.871Z,11.14
2019-05-02T00:50:23.856Z,11.16
2019-05-02T00:51:26.703Z,11.16
2019-05-02T00:52:23.836Z,11.17
2019-05-02T00:53:23.824Z,11.17
2019-05-02T00:54:25.244Z,11.19
2019-05-02T00:55:23.803Z,11.20
2019-05-02T00:56:23.793Z,11.21
2019-05-02T00:57:23.799Z,11.24
2019-05-02T00:58:27.177Z,11.26
2019-05-02T00:59:24.759Z,11.28
2019-05-02T01:00:23.771Z,11.28
2019-05-02T01:01:24.328Z,11.29
2019-05-02T01:02:24.745Z,11.30
2019-05-02T01:03:23.718Z,11.30
2019-05-02T01:04:27.429Z,11.33
2019-05-02T01:05:24.695Z,11.34
2019-05-02T01:06:23.686Z,11.34
2019-05-02T01:07:25.596Z,11.36
2019-05-02T01:08:23.683Z,11.37
2019-05-02T01:09:23.676Z,11.38
2019-05-02T01:10:23.648Z,11.41
2019-05-02T01:11:23.632Z,11.41
2019-05-02T01:12:26.675Z,11.43
2019-05-02T01:13:23.619Z,11.43
2019-05-02T01:14:27.291Z,11.45
2019-05-02T01:15:24.594Z,11.45
2019-05-02T01:16:23.582Z,11.46
2019-05-02T01:17:26.085Z,11.46
2019-05-02T01:18:24.569Z,11.48
2019-05-02T01:19:23.547Z,11.47
2019-05-02T01:20:27.409Z,11.49
2019-05-02T01:21:23.526Z,11.48
2019-05-02T01:22:23.530Z,11.49
2019-05-02T01:23:27.653Z,11.49
2019-05-02T01:24:24.494Z,11.51
2019-05-02T01:25:23.485Z,11.51
2019-05-02T01:26:24.133Z,11.54
2019-05-02T01:27:24.465Z,11.54
2019-05-02T01:28:23.457Z,11.53
2019-05-02T01:29:24.787Z,11.55
2019-05-02T01:30:24.433Z,11.56
2019-05-02T01:31:23.421Z,11.57
2019-05-02T01:32:25.262Z,11.59
2019-05-02T01:33:24.401Z,11.58
2019-05-02T01:34:23.393Z,11.58
2019-05-02T01:35:26.937Z,11.58
2019-05-02T01:36:24.370Z,11.57
2019-05-02T01:37:23.363Z,11.58
2019-05-02T01:38:26.192Z,11.58
2019-05-02T01:39:24.337Z,11.58
2019-05-02T01:40:23.326Z,11.58
2019-05-02T01:41:24.118Z,11.58
2019-05-02T01:42:24.304Z,11.58
2019-05-02T01:43:24.192Z,11.58
2019-05-02T01:44:23.297Z,11.57
2019-05-02T01:45:23.274Z,11.58
2019-05-02T01:46:24.164Z,11.57
2019-05-02T01:47:23.254Z,11.57
2019-05-02T01:48:23.244Z,11.57
2019-05-02T01:49:23.263Z,11.57
2019-05-02T01:50:23.237Z,11.57
2019-05-02T01:51:23.217Z,11.57
2019-05-02T01:52:23.667Z,11.56
2019-05-02T01:53:23.198Z,11.56
2019-05-02T01:54:23.179Z,11.56
2019-05-02T01:55:23.191Z,11.57
2019-05-02T01:56:23.168Z,11.57
2019-05-02T01:57:23.148Z,11.57
2019-05-02T01:58:23.136Z,11.58
2019-05-02T01:59:23.128Z,11.57
2019-05-02T02:00:23.115Z,11.57
2019-05-02T02:01:23.371Z,11.58
2019-05-02T02:02:23.106Z,11.58
2019-05-02T02:03:23.084Z,11.58
2019-05-02T02:04:23.075Z,11.57
2019-05-02T02:05:23.062Z,11.58
2019-05-02T02:06:23.053Z,11.58
2019-05-02T02:07:23.044Z,11.58
2019-05-02T02:08:27.390Z,11.59
2019-05-02T02:09:24.020Z,11.59
2019-05-02T02:10:23.010Z,11.61
2019-05-02T02:11:23.000Z,11.60
2019-05-02T02:12:22.991Z,11.61
2019-05-02T02:13:22.979Z,11.62
2019-05-02T02:14:22.978Z,11.63
2019-05-02T02:15:25.045Z,11.63
2019-05-02T02:16:23.945Z,11.63
2019-05-02T02:17:22.937Z,11.61
2019-05-02T02:18:27.729Z,11.63
2019-05-02T02:19:23.927Z,11.63
2019-05-02T02:20:22.904Z,11.63
2019-05-02T02:21:25.850Z,11.62
2019-05-02T02:22:22.884Z,11.62
2019-05-02T02:23:22.872Z,11.62
2019-05-02T02:24:25.196Z,11.62
2019-05-02T02:25:22.865Z,11.63
2019-05-02T02:26:22.846Z,11.62
2019-05-02T02:27:24.607Z,11.64
2019-05-02T02:28:22.821Z,11.64
2019-05-02T02:29:22.810Z,11.66
2019-05-02T02:30:24.681Z,11.65
2019-05-02T02:31:22.800Z,11.66
2019-05-02T02:32:26.803Z,11.67
2019-05-02T02:33:23.769Z,11.67
2019-05-02T02:34:29.237Z,11.68
2019-05-02T02:35:23.749Z,11.68
2019-05-02T02:36:31.491Z,11.69
2019-05-02T02:37:23.737Z,11.69
2019-05-02T02:38:26.785Z,11.71
2019-05-02T02:39:23.704Z,11.72
2019-05-02T02:40:32.567Z,11.71
2019-05-02T02:41:23.682Z,11.73
2019-05-02T02:42:25.000Z,11.74
2019-05-02T02:43:34.390Z,11.74
2019-05-02T02:44:23.650Z,11.74
2019-05-02T02:45:22.642Z,11.74
2019-05-02T02:46:22.631Z,11.74
2019-05-02T02:47:22.621Z,11.74
2019-05-02T02:48:22.610Z,11.74
2019-05-02T02:49:24.528Z,11.75
2019-05-02T02:50:22.606Z,11.76
2019-05-02T02:51:24.539Z,11.77
2019-05-02T02:52:22.567Z,11.77
2019-05-02T02:53:24.179Z,11.77
2019-05-02T02:54:22.545Z,11.78
2019-05-02T02:55:24.482Z,11.79
2019-05-02T02:56:22.524Z,11.77
2019-05-02T02:57:27.926Z,11.78
2019-05-02T02:58:23.501Z,11.78
2019-05-02T02:59:26.442Z,11.79
2019-05-02T03:00:22.481Z,11.78
2019-05-02T03:01:28.920Z,11.79
2019-05-02T03:02:23.459Z,11.80
2019-05-02T03:03:27.790Z,11.79
2019-05-02T03:04:23.443Z,11.80
2019-05-02T03:05:26.148Z,11.81
2019-05-02T03:06:23.424Z,11.80
2019-05-02T03:07:25.743Z,11.81
2019-05-02T03:08:23.406Z,11.81
2019-05-02T03:09:26.478Z,11.81
2019-05-02T03:10:23.378Z,11.80
2019-05-02T03:11:23.428Z,11.81
2019-05-02T03:12:22.371Z,11.82
2019-05-02T03:13:24.250Z,11.82
2019-05-02T03:14:22.334Z,11.84
2019-05-02T03:15:27.949Z,11.84
2019-05-02T03:16:23.307Z,11.85
2019-05-02T03:17:26.409Z,11.85
2019-05-02T03:18:26.928Z,11.87
2019-05-02T03:19:23.258Z,11.88
2019-05-02T03:20:22.266Z,11.87
2019-05-02T03:21:22.700Z,11.88
2019-05-02T03:22:22.253Z,11.86
2019-05-02T03:23:24.151Z,11.88
2019-05-02T03:24:22.234Z,11.88
2019-05-02T03:25:26.942Z,11.89
2019-05-02T03:26:23.206Z,11.89
2019-05-02T03:27:22.191Z,11.89
2019-05-02T03:28:22.179Z,11.91
2019-05-02T03:29:22.173Z,11.92
2019-05-02T03:30:33.002Z,11.92
2019-05-02T03:31:29.021Z,11.91
2019-05-02T03:32:33.111Z,11.91
2019-05-02T03:33:23.126Z,11.92
2019-05-02T03:34:22.140Z,11.91
2019-05-02T03:35:40.415Z,11.91
2019-05-02T03:36:30.065Z,11.91
2019-05-02T03:37:23.083Z,11.90
2019-05-02T03:38:31.348Z,11.91
2019-05-02T03:39:23.059Z,11.90
2019-05-02T03:40:22.051Z,11.91
2019-05-02T03:41:23.567Z,11.91
2019-05-02T03:42:22.052Z,11.92
2019-05-02T03:43:25.735Z,11.93
2019-05-02T03:44:25.941Z,11.94
2019-05-02T03:45:22.007Z,11.95
2019-05-02T03:46:22.770Z,11.96
2019-05-02T03:47:21.976Z,11.95
2019-05-02T03:48:25.714Z,11.96
2019-05-02T03:49:22.953Z,11.98
2019-05-02T03:50:31.663Z,11.97
2019-05-02T03:51:25.264Z,11.98
2019-05-02T03:52:21.921Z,11.98
2019-05-02T03:53:24.965Z,11.97
2019-05-02T03:54:22.919Z,11.98
2019-05-02T03:55:23.719Z,12.00
2019-05-02T03:56:22.883Z,12.00
2019-05-02T03:57:31.672Z,12.00
2019-05-02T03:58:22.856Z,12.00
2019-05-02T03:59:21.845Z,12.00
2019-05-02T04:00:24.357Z,12.01
2019-05-02T04:01:21.826Z,12.01
2019-05-02T04:02:21.949Z,12.03
2019-05-02T04:03:21.814Z,12.02
2019-05-02T04:04:22.788Z,12.03
2019-05-02T04:05:21.788Z,12.04
2019-05-02T04:06:23.785Z,12.04
2019-05-02T04:07:21.763Z,12.04
2019-05-02T04:08:22.754Z,12.04
2019-05-02T04:09:21.739Z,12.04
2019-05-02T04:10:21.727Z,12.05
2019-05-02T04:11:21.716Z,12.04
2019-05-02T04:12:22.023Z,12.04
2019-05-02T04:13:21.695Z,12.03
2019-05-02T04:14:36.806Z,12.04
2019-05-02T04:15:28.690Z,12.05
2019-05-02T04:16:22.668Z,12.05
2019-05-02T04:17:21.653Z,12.07
2019-05-02T04:18:21.657Z,12.07
2019-05-02T04:19:21.631Z,12.08
2019-05-02T04:20:21.620Z,12.08
2019-05-02T04:21:24.434Z,12.09
2019-05-02T04:22:21.597Z,12.12
2019-05-02T04:23:27.659Z,12.11
2019-05-02T04:24:22.595Z,12.13
2019-05-02T04:25:28.088Z,12.14
2019-05-02T04:26:22.560Z,12.15
2019-05-02T04:27:21.544Z,12.18
2019-05-02T04:28:21.532Z,12.19
2019-05-02T04:29:24.581Z,12.20
2019-05-02T04:30:22.524Z,12.21
2019-05-02T04:31:24.877Z,12.23
2019-05-02T04:32:22.498Z,12.25
2019-05-02T04:33:21.491Z,12.24
2019-05-02T04:34:21.471Z,12.26
2019-05-02T04:35:21.457Z,12.26
2019-05-02T04:36:21.459Z,12.27
2019-05-02T04:37:21.439Z,12.27
2019-05-02T04:38:31.634Z,12.28
2019-05-02T04:39:22.421Z,12.27
2019-05-02T04:40:21.406Z,12.27
2019-05-02T04:41:28.500Z,12.27
2019-05-02T04:42:23.340Z,12.28
2019-05-02T04:43:21.392Z,12.27
2019-05-02T04:44:21.372Z,12.27
2019-05-02T04:45:28.767Z,12.29
2019-05-02T04:46:27.286Z,12.29
2019-05-02T04:47:22.419Z,12.30
2019-05-02T04:48:21.332Z,12.31
2019-05-02T04:49:29.899Z,12.30
2019-05-02T04:50:25.381Z,12.30
2019-05-02T04:51:21.286Z,12.30
2019-05-02T04:52:21.484Z,12.30
2019-05-02T04:53:26.068Z,12.31
2019-05-02T04:54:28.033Z,12.30
2019-05-02T04:55:29.224Z,12.30
2019-05-02T04:56:22.234Z,12.31
2019-05-02T04:57:29.763Z,12.31
2019-05-02T04:58:28.002Z,12.32
2019-05-02T04:59:23.111Z,12.32
2019-05-02T05:00:21.200Z,12.33
2019-05-02T05:01:21.628Z,12.34
2019-05-02T05:02:29.625Z,12.35
2019-05-02T05:03:22.155Z,12.38
2019-05-02T05:04:21.146Z,12.39
2019-05-02T05:05:25.488Z,12.40
2019-05-02T05:06:22.134Z,12.41
2019-05-02T05:07:21.115Z,12.42
2019-05-02T05:08:26.303Z,12.43
2019-05-02T05:09:22.090Z,12.43
2019-05-02T05:10:21.081Z,12.44
2019-05-02T05:11:24.836Z,12.45
2019-05-02T05:12:21.069Z,12.45
2019-05-02T05:13:23.305Z,12.47
2019-05-02T05:14:21.039Z,12.47
2019-05-02T05:15:35.494Z,12.50
2019-05-02T05:16:22.014Z,12.51
2019-05-02T05:17:25.196Z,12.53
2019-05-02T05:18:22.008Z,12.54
2019-05-02T05:19:23.141Z,12.54
2019-05-02T05:20:21.975Z,12.55
2019-05-02T05:21:24.682Z,12.56
2019-05-02T05:22:20.956Z,12.59
2019-05-02T05:23:21.617Z,12.61
2019-05-02T05:24:20.950Z,12.64
2019-05-02T05:25:21.421Z,12.66
2019-05-02T05:26:20.909Z,12.70
2019-05-02T05:27:22.770Z,12.71
2019-05-02T05:28:20.888Z,12.72
2019-05-02T05:29:23.284Z,12.73
2019-05-02T05:30:20.880Z,12.75
2019-05-02T05:31:23.975Z,12.75
2019-05-02T05:32:20.844Z,12.75
2019-05-02T05:33:20.836Z,12.74
2019-05-02T05:34:22.785Z,12.76
2019-05-02T05:35:21.832Z,12.76
2019-05-02T05:36:29.169Z,12.78
2019-05-02T05:37:21.788Z,12.79
2019-05-02T05:38:23.060Z,12.79
2019-05-02T05:39:21.766Z,12.79
2019-05-02T05:40:22.482Z,12.81
2019-05-02T05:41:23.272Z,12.81
2019-05-02T05:42:23.147Z,12.81
2019-05-02T05:43:21.723Z,12.80
2019-05-02T05:44:23.228Z,12.78
2019-05-02T05:45:21.701Z,12.79
2019-05-02T05:46:20.691Z,12.78
2019-05-02T05:47:21.413Z,12.79
2019-05-02T05:48:20.671Z,12.80
2019-05-02T05:49:21.843Z,12.80
2019-05-02T05:50:20.649Z,12.82
2019-05-02T05:51:20.847Z,12.83
2019-05-02T05:52:20.627Z,12.86
2019-05-02T05:53:21.405Z,12.88
2019-05-02T05:54:20.605Z,12.89
2019-05-02T05:55:24.202Z,12.90
2019-05-02T05:56:20.585Z,12.93
2019-05-02T05:57:21.214Z,12.96
2019-05-02T05:58:20.561Z,12.97
2019-05-02T05:59:22.316Z,12.99
2019-05-02T06:00:23.171Z,12.99
2019-05-02T06:01:20.642Z,13.01
2019-05-02T06:02:20.517Z,13.02
2019-05-02T06:03:20.511Z,13.02
2019-05-02T06:04:23.642Z,13.03
2019-05-02T06:05:21.494Z,13.04
2019-05-02T06:06:23.204Z,13.05
2019-05-02T06:07:20.463Z,13.06
2019-05-02T06:08:20.452Z,13.06
2019-05-02T06:09:20.441Z,13.06
2019-05-02T06:10:20.432Z,13.09
2019-05-02T06:11:21.782Z,13.11
2019-05-02T06:12:20.408Z,13.13
2019-05-02T06:13:20.402Z,13.13
2019-05-02T06:14:24.888Z,13.14
2019-05-02T06:15:21.376Z,13.15
2019-05-02T06:16:20.367Z,13.14
2019-05-02T06:17:23.165Z,13.15
2019-05-02T06:18:21.342Z,13.14
2019-05-02T06:19:20.333Z,13.15
2019-05-02T06:20:20.322Z,13.18
2019-05-02T06:21:20.322Z,13.22
2019-05-02T06:22:24.325Z,13.26
2019-05-02T06:23:21.299Z,13.29
2019-05-02T06:24:20.278Z,13.30
2019-05-02T06:25:32.929Z,13.32
2019-05-02T06:26:21.256Z,13.33
2019-05-02T06:27:20.800Z,13.35
2019-05-02T06:28:20.234Z,13.36
2019-05-02T06:29:20.942Z,13.39
2019-05-02T06:30:20.215Z,13.41
2019-05-02T06:31:20.202Z,13.42
2019-05-02T06:32:20.710Z,13.45
2019-05-02T06:33:20.180Z,13.49
2019-05-02T06:34:20.171Z,13.52
2019-05-02T06:35:21.116Z,13.55
2019-05-02T06:36:20.148Z,13.55
2019-05-02T06:37:20.140Z,13.55
2019-05-02T06:38:21.554Z,13.56
2019-05-02T06:39:20.114Z,13.54
2019-05-02T06:40:20.104Z,13.52
2019-05-02T06:41:20.913Z,13.52
2019-05-02T06:42:20.082Z,13.52
2019-05-02T06:43:20.072Z,13.50
2019-05-02T06:44:23.980Z,13.52
2019-05-02T06:45:21.049Z,13.54
2019-05-02T06:46:21.594Z,13.55
2019-05-02T06:47:21.039Z,13.56
2019-05-02T06:48:20.019Z,13.59
2019-05-02T06:49:24.288Z,13.62
2019-05-02T06:50:20.995Z,13.63
2019-05-02T06:51:21.159Z,13.65
2019-05-02T06:52:19.974Z,13.67
2019-05-02T06:53:19.975Z,13.68
2019-05-02T06:54:22.846Z,13.72
2019-05-02T06:55:19.942Z,13.75
2019-05-02T06:56:19.931Z,13.79
2019-05-02T06:57:24.013Z,13.80
2019-05-02T06:58:20.927Z,13.85
2019-05-02T06:59:20.336Z,13.91
2019-05-02T07:00:19.888Z,13.95
2019-05-02T07:01:21.400Z,14.06
2019-05-02T07:02:19.866Z,14.14
2019-05-02T07:03:19.855Z,14.16
2019-05-02T07:04:22.793Z,14.24
2019-05-02T07:05:19.839Z,14.36
2019-05-02T07:06:19.864Z,14.48
2019-05-02T07:07:24.560Z,14.66
2019-05-02T07:08:20.808Z,14.94
2019-05-02T07:09:19.885Z,15.17
2019-05-02T07:10:25.091Z,15.34
2019-05-02T07:11:20.769Z,15.49
2019-05-02T07:12:19.763Z,15.75
2019-05-02T07:13:19.749Z,16.10
2019-05-02T07:14:23.651Z,16.24
2019-05-02T07:15:20.823Z,16.30
2019-05-02T07:16:37.186Z,16.42
2019-05-02T07:17:20.705Z,16.51
2019-05-02T07:18:19.694Z,16.62
2019-05-02T07:19:21.885Z,16.81
2019-05-02T07:20:20.675Z,17.41
2019-05-02T07:21:23.403Z,18.06
2019-05-02T07:22:19.653Z,18.29
2019-05-02T07:23:19.640Z,19.14
2019-05-02T07:24:19.629Z,19.54
2019-05-02T07:25:19.619Z,19.50
2019-05-02T07:26:21.041Z,19.38
2019-05-02T07:27:19.608Z,19.28
2019-05-02T07:28:19.586Z,19.18
2019-05-02T07:29:21.848Z,19.08
2019-05-02T07:30:19.564Z,19.03
2019-05-02T07:31:19.554Z,19.04
2019-05-02T07:32:24.478Z,19.02
2019-05-02T07:33:20.542Z,18.92
2019-05-02T07:34:19.521Z,18.93
2019-05-02T07:35:24.568Z,19.43
2019-05-02T07:36:20.499Z,20.29
2019-05-02T07:37:19.489Z,21.31
2019-05-02T07:38:20.142Z,21.30
2019-05-02T07:39:20.480Z,21.05
2019-05-02T07:40:19.457Z,21.04
2019-05-02T07:41:19.447Z,20.88
2019-05-02T07:42:19.437Z,20.80
2019-05-02T07:43:22.167Z,20.98
2019-05-02T07:44:19.417Z,21.01
2019-05-02T07:45:19.414Z,20.85
2019-05-02T07:46:20.931Z,20.80
2019-05-02T07:47:19.384Z,20.60
2019-05-02T07:48:19.372Z,20.58
2019-05-02T07:49:20.864Z,21.93
2019-05-02T07:50:19.350Z,23.28
2019-05-02T07:51:21.336Z,23.14
2019-05-02T07:52:19.333Z,22.84
2019-05-02T07:53:19.318Z,23.22
2019-05-02T07:54:24.441Z,24.52
2019-05-02T07:55:20.352Z,26.02
2019-05-02T07:56:19.285Z,27.25
2019-05-02T07:57:19.286Z,27.09
2019-05-02T07:58:19.265Z,26.67
2019-05-02T07:59:23.332Z,26.95
2019-05-02T08:00:19.242Z,26.52
2019-05-02T08:01:19.232Z,26.40
2019-05-02T08:02:20.340Z,26.16
2019-05-02T08:03:20.219Z,25.49
2019-05-02T08:04:19.199Z,24.88
2019-05-02T08:05:21.862Z,24.58
2019-05-02T08:06:19.178Z,24.51
2019-05-02T08:07:21.098Z,24.75
2019-05-02T08:08:19.163Z,26.40
2019-05-02T08:09:19.158Z,27.69
2019-05-02T08:10:22.045Z,27.92
2019-05-02T08:11:19.123Z,27.57
2019-05-02T08:12:19.116Z,27.64
2019-05-02T08:13:19.453Z,28.92
2019-05-02T08:14:19.093Z,29.10
2019-05-02T08:15:19.091Z,30.17
2019-05-02T08:16:22.397Z,30.10
2019-05-02T08:17:20.058Z,29.62
2019-05-02T08:18:19.049Z,29.34
2019-05-02T08:19:19.039Z,28.75
2019-05-02T08:20:19.901Z,27.83
2019-05-02T08:21:19.030Z,27.16
2019-05-02T08:22:19.011Z,26.79
2019-05-02T08:23:20.408Z,28.13
2019-05-02T08:24:19.984Z,28.68
2019-05-02T08:25:18.974Z,29.09
2019-05-02T08:26:21.790Z,29.45
2019-05-02T08:27:18.963Z,30.09
2019-05-02T08:28:18.945Z,30.71
2019-05-02T08:29:23.436Z,31.22
2019-05-02T08:30:19.921Z,31.63
2019-05-02T08:31:20.926Z,32.08
2019-05-02T08:32:18.899Z,32.26
2019-05-02T08:33:18.900Z,32.53
2019-05-02T08:34:18.882Z,32.96
2019-05-02T08:35:18.869Z,33.23
2019-05-02T08:36:18.859Z,33.28
2019-05-02T08:37:18.846Z,33.53
2019-05-02T08:38:19.009Z,33.68
2019-05-02T08:39:18.838Z,33.57
2019-05-02T08:40:18.814Z,33.20
2019-05-02T08:41:19.981Z,32.06
2019-05-02T08:42:18.792Z,31.40
2019-05-02T08:43:18.781Z,30.30
2019-05-02T08:44:18.770Z,29.84
2019-05-02T08:45:18.770Z,30.18
2019-05-02T08:46:18.750Z,30.49
2019-05-02T08:47:19.402Z,30.36
2019-05-02T08:48:18.729Z,30.10
2019-05-02T08:49:19.980Z,29.76
2019-05-02T08:50:18.708Z,29.28
2019-05-02T08:51:18.707Z,29.09
2019-05-02T08:52:18.688Z,28.46
2019-05-02T08:53:19.850Z,28.44
2019-05-02T08:54:18.665Z,28.64
2019-05-02T08:55:18.658Z,28.70
2019-05-02T08:56:21.361Z,28.63
2019-05-02T08:57:18.654Z,28.67
2019-05-02T08:58:18.622Z,28.59
2019-05-02T08:59:19.757Z,28.06
2019-05-02T09:00:18.600Z,28.09
2019-05-02T09:01:18.595Z,28.28
2019-05-02T09:02:21.152Z,28.53
2019-05-02T09:03:19.585Z,28.95
2019-05-02T09:04:18.558Z,29.28
2019-05-02T09:05:18.545Z,29.57
2019-05-02T09:06:22.377Z,29.79
2019-05-02T09:07:19.568Z,30.00
2019-05-02T09:08:18.516Z,30.22
2019-05-02T09:09:22.819Z,30.12
2019-05-02T09:10:19.492Z,29.79
2019-05-02T09:11:18.482Z,29.67
2019-05-02T09:12:20.141Z,29.81
2019-05-02T09:13:26.396Z,29.79
2019-05-02T09:14:21.614Z,29.95
2019-05-02T09:15:18.440Z,30.09
2019-05-02T09:16:23.670Z,30.34
2019-05-02T09:17:33.145Z,30.38
2019-05-02T09:18:21.745Z,30.44
2019-05-02T09:19:21.493Z,30.45
2019-05-02T09:20:20.855Z,30.58
2019-05-02T09:21:18.377Z,30.74
2019-05-02T09:22:18.367Z,30.88
2019-05-02T09:23:18.355Z,31.05
2019-05-02T09:24:21.272Z,31.20
2019-05-02T09:25:19.333Z,31.35
2019-05-02T09:26:31.968Z,31.46
2019-05-02T09:27:19.311Z,31.56
2019-05-02T09:28:22.485Z,31.63
2019-05-02T09:29:19.290Z,31.67
2019-05-02T09:30:24.474Z,31.68
2019-05-02T09:31:19.279Z,31.71
2019-05-02T09:32:22.842Z,31.74
2019-05-02T09:33:19.249Z,31.78
2019-05-02T09:34:22.857Z,31.84
2019-05-02T09:35:19.227Z,31.93
2019-05-02T09:36:18.219Z,32.02
2019-05-02T09:37:18.218Z,32.09
2019-05-02T09:38:18.198Z,32.21
2019-05-02T09:39:18.185Z,32.32
2019-05-02T09:40:18.175Z,32.25
2019-05-02T09:41:19.403Z,31.96
2019-05-02T09:42:19.144Z,31.69
2019-05-02T09:43:18.155Z,31.74
2019-05-02T09:44:18.814Z,31.38
2019-05-02T09:45:18.122Z,31.29
2019-05-02T09:46:18.111Z,31.16
2019-05-02T09:47:18.103Z,31.16
2019-05-02T09:48:22.864Z,31.07
2019-05-02T09:49:19.090Z,31.14
2019-05-02T09:50:20.546Z,31.12
2019-05-02T09:51:19.058Z,31.10
2019-05-02T09:52:18.048Z,31.00
2019-05-02T09:53:20.937Z,30.95
2019-05-02T09:54:19.029Z,30.91
2019-05-02T09:55:18.027Z,30.81
2019-05-02T09:56:18.006Z,30.80
2019-05-02T09:57:17.995Z,30.88
2019-05-02T09:58:21.216Z,30.94
2019-05-02T09:59:29.267Z,31.05
2019-05-02T10:00:18.972Z,31.16
2019-05-02T10:01:17.951Z,31.31
2019-05-02T10:02:17.941Z,31.49
2019-05-02T10:03:17.936Z,31.57
2019-05-02T10:04:17.919Z,31.63
2019-05-02T10:05:17.918Z,31.65
2019-05-02T10:06:18.376Z,31.81
2019-05-02T10:07:17.887Z,32.02
2019-05-02T10:08:17.876Z,32.23
2019-05-02T10:09:18.650Z,32.43
2019-05-02T10:10:18.854Z,32.67
2019-05-02T10:11:24.431Z,32.84
2019-05-02T10:12:18.843Z,33.09
2019-05-02T10:13:17.834Z,33.39
2019-05-02T10:14:17.824Z,33.70
2019-05-02T10:15:17.939Z,34.03
2019-05-02T10:16:22.377Z,34.34
2019-05-02T10:17:18.785Z,34.61
2019-05-02T10:18:19.689Z,34.91
2019-05-02T10:19:18.765Z,35.23
2019-05-02T10:20:17.750Z,35.48
2019-05-02T10:21:17.739Z,35.79
2019-05-02T10:22:17.731Z,36.19
2019-05-02T10:23:19.554Z,36.57
2019-05-02T10:24:17.719Z,36.85
2019-05-02T10:25:17.698Z,36.57
2019-05-02T10:26:20.028Z,35.75
2019-05-02T10:27:17.676Z,34.91
2019-05-02T10:28:17.665Z,33.93
2019-05-02T10:29:22.821Z,33.18
2019-05-02T10:30:18.654Z,32.81
2019-05-02T10:31:17.633Z,32.48
2019-05-02T10:32:17.623Z,32.05
2019-05-02T10:33:17.613Z,31.92
2019-05-02T10:34:17.904Z,31.93
2019-05-02T10:35:17.592Z,31.39
2019-05-02T10:36:19.575Z,30.86
2019-05-02T10:37:17.568Z,30.31
2019-05-02T10:38:19.429Z,29.79
2019-05-02T10:39:17.557Z,29.24
2019-05-02T10:40:17.600Z,28.70
2019-05-02T10:41:17.530Z,28.27
2019-05-02T10:42:17.526Z,27.90
2019-05-02T10:43:17.506Z,27.75
2019-05-02T10:44:17.493Z,27.74
2019-05-02T10:45:17.483Z,27.68
2019-05-02T10:46:17.473Z,27.58
2019-05-02T10:47:17.464Z,27.55
2019-05-02T10:48:25.876Z,27.49
2019-05-02T10:49:18.440Z,27.41
2019-05-02T10:50:17.431Z,27.31
2019-05-02T10:51:17.424Z,27.22
2019-05-02T10:52:21.689Z,27.09
2019-05-02T10:53:18.416Z,27.00
2019-05-02T10:54:20.376Z,26.91
2019-05-02T10:55:17.384Z,26.82
2019-05-02T10:56:17.366Z,26.71
2019-05-02T10:57:17.376Z,26.64
2019-05-02T10:58:17.348Z,26.59
2019-05-02T10:59:17.362Z,26.53
2019-05-02T11:00:17.326Z,26.48
2019-05-02T11:01:17.311Z,26.53
2019-05-02T11:02:17.301Z,26.57
2019-05-02T11:03:17.290Z,26.63
2019-05-02T11:04:17.279Z,26.73
2019-05-02T11:05:22.588Z,26.86
2019-05-02T11:06:18.255Z,26.98
2019-05-02T11:07:21.943Z,27.11
2019-05-02T11:08:18.236Z,27.24
2019-05-02T11:09:22.502Z,27.25
2019-05-02T11:10:18.225Z,27.22
2019-05-02T11:11:17.205Z,27.11
2019-05-02T11:12:24.232Z,27.00
2019-05-02T11:13:18.181Z,26.87
2019-05-02T11:14:17.169Z,26.67
2019-05-02T11:15:17.170Z,26.51
2019-05-02T11:16:17.167Z,26.37
2019-05-02T11:17:17.992Z,26.31
2019-05-02T11:18:17.130Z,26.29
2019-05-02T11:19:17.196Z,26.27
2019-05-02T11:20:17.106Z,26.16
2019-05-02T11:21:18.827Z,26.02
2019-05-02T11:22:17.101Z,25.87
2019-05-02T11:23:17.072Z,25.78
2019-05-02T11:24:17.060Z,25.69
2019-05-02T11:25:17.050Z,25.69
2019-05-02T11:26:21.505Z,25.61
2019-05-02T11:27:18.046Z,25.54
2019-05-02T11:28:17.021Z,25.42
2019-05-02T11:29:17.008Z,25.34
2019-05-02T11:30:21.499Z,25.33
2019-05-02T11:31:17.982Z,25.39
2019-05-02T11:32:16.979Z,25.43
2019-05-02T11:33:16.992Z,25.45
2019-05-02T11:34:16.962Z,25.41
2019-05-02T11:35:16.942Z,25.36
2019-05-02T11:36:16.931Z,25.32
2019-05-02T11:37:16.921Z,25.29
2019-05-02T11:38:37.135Z,25.31
2019-05-02T11:39:25.476Z,25.37
2019-05-02T11:40:17.887Z,25.41
2019-05-02T11:41:16.879Z,25.49
2019-05-02T11:42:17.672Z,25.59
2019-05-02T11:43:17.857Z,25.68
2019-05-02T11:44:16.847Z,25.74
2019-05-02T11:45:16.847Z,25.76
2019-05-02T11:46:16.823Z,25.78
2019-05-02T11:47:17.290Z,25.83
2019-05-02T11:48:19.636Z,25.91
2019-05-02T11:49:16.791Z,25.98
2019-05-02T11:50:16.788Z,26.02
2019-05-02T11:51:16.778Z,26.04
2019-05-02T11:52:16.772Z,26.09
2019-05-02T11:53:29.016Z,26.16
2019-05-02T11:54:17.735Z,26.23
2019-05-02T11:55:18.997Z,26.29
2019-05-02T11:56:17.727Z,26.29
2019-05-02T11:57:22.719Z,26.24
2019-05-02T11:58:17.690Z,26.17
2019-05-02T11:59:20.786Z,26.12
2019-05-02T12:00:17.669Z,26.11
2019-05-02T12:01:20.163Z,26.06
2019-05-02T12:02:18.979Z,26.06
2019-05-02T12:03:16.638Z,26.05
2019-05-02T12:04:17.058Z,26.00
2019-05-02T12:05:16.629Z,25.94
2019-05-02T12:06:19.772Z,25.85
2019-05-02T12:07:16.603Z,25.76
2019-05-02T12:08:16.600Z,25.60
2019-05-02T12:09:16.571Z,25.50
2019-05-02T12:10:16.561Z,25.41
2019-05-02T12:11:17.805Z,25.40
2019-05-02T12:12:16.538Z,25.37
2019-05-02T12:13:16.532Z,25.29
2019-05-02T12:14:16.528Z,25.14
2019-05-02T12:15:16.505Z,25.01
2019-05-02T12:16:16.495Z,24.88
2019-05-02T12:17:16.488Z,24.78
2019-05-02T12:18:16.472Z,24.73
2019-05-02T12:19:16.469Z,24.71
2019-05-02T12:20:16.479Z,24.72
2019-05-02T12:21:16.445Z,24.69
2019-05-02T12:22:17.059Z,24.63
2019-05-02T12:23:16.424Z,24.55
2019-05-02T12:24:16.410Z,24.41
2019-05-02T12:25:16.399Z,24.28
2019-05-02T12:26:16.404Z,24.09
2019-05-02T12:27:16.383Z,23.88
2019-05-02T12:28:16.368Z,23.70
2019-05-02T12:29:16.362Z,23.53
2019-05-02T12:30:16.346Z,23.39
2019-05-02T12:31:16.741Z,23.23
2019-05-02T12:32:16.338Z,23.08
2019-05-02T12:33:16.326Z,22.95
2019-05-02T12:34:16.303Z,22.81
2019-05-02T12:35:16.292Z,22.61
2019-05-02T12:36:16.293Z,22.40
2019-05-02T12:37:16.273Z,22.18
2019-05-02T12:38:16.269Z,21.97
2019-05-02T12:39:16.250Z,21.75
2019-05-02T12:40:16.237Z,21.58
2019-05-02T12:41:22.256Z,21.38
2019-05-02T12:42:17.630Z,21.21
2019-05-02T12:43:16.206Z,21.04
2019-05-02T12:44:16.206Z,20.88
2019-05-02T12:45:16.192Z,20.74
2019-05-02T12:46:16.190Z,20.63
2019-05-02T12:47:16.162Z,20.52
2019-05-02T12:48:16.191Z,20.43
2019-05-02T12:49:25.276Z,20.36
2019-05-02T12:50:17.142Z,20.30
2019-05-02T12:51:16.123Z,20.27
2019-05-02T12:52:16.109Z,20.24